Caddo, Louisiana
Current Conditions -  °F | °C
As of 11:53 AM on Saturday 25 Oct 2014 (Local Time) from KDTN Reporting Station
Clear Clear  
Wind Chill: 76°   Ceiling: Unl
Heat Index: 76°   Visibility: 10mi
Dew Point: 58°   Wind: 8mph
Humidity: 54%   Direction: 230°SW
Pressure: 30.16"   Gusts: NA
Location:  32.7782°N, 93.9615°W
Report Text: KDTN 251653Z 23007KT 10SM CLR 24/14 A3016 RMK AO2 SLP211 T02440144
Loading
Personal Weather Stations






























Interactive Weather Map
Tropical Storm Tracking
New forecast layout! Learn more

10-Day Weather Forecast

Advertisements
Track Severe Weather on mobile